sensor_id;sensor_type;location;lat;lon;timestamp;pressure;altitude;pressure_sealevel;temperature;humidity
9077;BME280;4574;51.072;17.174;2023-01-27T00:01:35;100497.19;;;2.62;100.00
9077;BME280;4574;51.072;17.174;2023-01-27T00:04:05;100500.75;;;2.61;100.00
9077;BME280;4574;51.072;17.174;2023-01-27T00:06:34;100500.75;;;2.61;100.00
9077;BME280;4574;51.072;17.174;2023-01-27T00:09:02;100494.69;;;2.61;100.00
9077;BME280;4574;51.072;17.174;2023-01-27T00:11:31;100492.91;;;2.61;100.00
9077;BME280;4574;51.072;17.174;2023-01-27T00:14:16;100492.91;;;2.61;100.00
9077;BME280;4574;51.072;17.174;2023-01-27T00:16:45;100482.75;;;2.57;100.00
9077;BME280;4574;51.072;17.174;2023-01-27T00:19:15;100498.31;;;2.58;100.00
9077;BME280;4574;51.072;17.174;2023-01-27T00:21:46;100493.84;;;2.60;100.00
9077;BME280;4574;51.072;17.174;2023-01-27T00:24:32;100489.53;;;2.59;100.00
9077;BME280;4574;51.072;17.174;2023-01-27T00:27:03;100492.09;;;2.61;100.00
9077;BME280;4574;51.072;17.174;2023-01-27T00:29:35;100493.03;;;2.60;100.00
9077;BME280;4574;51.072;17.174;2023-01-27T00:32:04;100496.44;;;2.60;100.00
9077;BME280;4574;51.072;17.174;2023-01-27T00:34:51;100503.47;;;2.60;100.00
9077;BME280;4574;51.072;17.174;2023-01-27T00:37:20;100503.38;;;2.61;100.00
9077;BME280;4574;51.072;17.174;2023-01-27T00:39:48;100505.22;;;2.59;100.00
9077;BME280;4574;51.072;17.174;2023-01-27T00:42:17;100506.16;;;2.58;100.00
9077;BME280;4574;51.072;17.174;2023-01-27T00:44:45;100513.00;;;2.61;100.00
9077;BME280;4574;51.072;17.174;2023-01-27T00:47:28;100513.91;;;2.60;100.00
9077;BME280;4574;51.072;17.174;2023-01-27T00:49:57;100513.16;;;2.58;100.00
9077;BME280;4574;51.072;17.174;2023-01-27T00:52:26;100506.25;;;2.57;100.00
9077;BME280;4574;51.072;17.174;2023-01-27T00:54:54;100502.78;;;2.56;100.00
9077;BME280;4574;51.072;17.174;2023-01-27T00:57:23;100504.84;;;2.51;100.00
9077;BME280;4574;51.072;17.174;2023-01-27T00:59:51;100519.97;;;2.60;100.00
9077;BME280;4574;51.072;17.174;2023-01-27T01:02:20;100520.91;;;2.59;100.00
9077;BME280;4574;51.072;17.174;2023-01-27T01:04:51;100525.19;;;2.60;100.00
9077;BME280;4574;51.072;17.174;2023-01-27T01:07:21;100527.81;;;2.60;100.00
9077;BME280;4574;51.072;17.174;2023-01-27T01:09:49;100525.13;;;2.62;100.00
9077;BME280;4574;51.072;17.174;2023-01-27T01:12:18;100514.84;;;2.59;100.00
9077;BME280;4574;51.072;17.174;2023-01-27T01:14:46;100517.34;;;2.60;100.00
9077;BME280;4574;51.072;17.174;2023-01-27T01:17:15;100508.19;;;2.53;100.00
9077;BME280;4574;51.072;17.174;2023-01-27T01:19:43;100514.84;;;2.59;100.00
9077;BME280;4574;51.072;17.174;2023-01-27T01:22:12;100516.53;;;2.60;100.00
9077;BME280;4574;51.072;17.174;2023-01-27T01:24:42;100495.31;;;2.50;100.00
9077;BME280;4574;51.072;17.174;2023-01-27T01:27:10;100513.00;;;2.61;100.00
9077;BME280;4574;51.072;17.174;2023-01-27T01:29:39;100502.72;;;2.58;100.00
9077;BME280;4574;51.072;17.174;2023-01-27T01:32:07;100499.34;;;2.56;100.00
9077;BME280;4574;51.072;17.174;2023-01-27T01:34:37;100509.53;;;2.60;100.00
9077;BME280;4574;51.072;17.174;2023-01-27T01:37:17;100503.38;;;2.61;100.00
9077;BME280;4574;51.072;17.174;2023-01-27T01:39:47;100508.59;;;2.61;100.00
9077;BME280;4574;51.072;17.174;2023-01-27T01:42:16;100508.59;;;2.61;100.00
9077;BME280;4574;51.072;17.174;2023-01-27T01:44:45;100510.44;;;2.59;100.00
9077;BME280;4574;51.072;17.174;2023-01-27T01:47:14;100507.66;;;2.62;100.00
9077;BME280;4574;51.072;17.174;2023-01-27T01:49:45;100497.31;;;2.61;100.00
9077;BME280;4574;51.072;17.174;2023-01-27T01:52:16;100496.63;;;2.57;100.00
9077;BME280;4574;51.072;17.174;2023-01-27T01:54:50;100503.53;;;2.58;100.00
9077;BME280;4574;51.072;17.174;2023-01-27T01:57:24;100496.63;;;2.57;100.00
9077;BME280;4574;51.072;17.174;2023-01-27T01:59:57;100499.06;;;2.60;100.00
9077;BME280;4574;51.072;17.174;2023-01-27T02:02:28;100482.44;;;2.47;100.00
9077;BME280;4574;51.072;17.174;2023-01-27T02:05:00;100501.84;;;2.57;100.00
9077;BME280;4574;51.072;17.174;2023-01-27T02:07:33;100508.00;;;2.56;100.00
9077;BME280;4574;51.072;17.174;2023-01-27T02:10:06;100500.25;;;2.55;100.00
9077;BME280;4574;51.072;17.174;2023-01-27T02:12:35;100513.91;;;2.60;100.00
9077;BME280;4574;51.072;17.174;2023-01-27T02:15:05;100503.53;;;2.58;100.00
9077;BME280;4574;51.072;17.174;2023-01-27T02:17:34;100490.91;;;2.51;100.00
9077;BME280;4574;51.072;17.174;2023-01-27T02:20:06;100504.59;;;2.56;100.00
9077;BME280;4574;51.072;17.174;2023-01-27T02:22:40;100500.34;;;2.53;100.00
9077;BME280;4574;51.072;17.174;2023-01-27T02:25:19;100503.72;;;2.55;100.00
9077;BME280;4574;51.072;17.174;2023-01-27T02:27:52;100508.94;;;2.55;100.00
9077;BME280;4574;51.072;17.174;2023-01-27T02:30:20;100513.41;;;2.53;100.00
9077;BME280;4574;51.072;17.174;2023-01-27T02:32:49;100509.13;;;2.52;100.00
9077;BME280;4574;51.072;17.174;2023-01-27T02:35:24;100523.94;;;2.52;100.00
9077;BME280;4574;51.072;17.174;2023-01-27T02:37:55;100522.25;;;2.51;100.00
9077;BME280;4574;51.072;17.174;2023-01-27T02:40:25;100508.44;;;2.49;100.00
9077;BME280;4574;51.072;17.174;2023-01-27T02:42:56;100509.19;;;2.51;100.00
9077;BME280;4574;51.072;17.174;2023-01-27T02:45:24;100511.00;;;2.50;100.00
9077;BME280;4574;51.072;17.174;2023-01-27T02:47:54;100509.19;;;2.51;100.00
9077;BME280;4574;51.072;17.174;2023-01-27T02:50:23;100511.75;;;2.52;100.00
9077;BME280;4574;51.072;17.174;2023-01-27T02:52:52;100516.97;;;2.52;100.00
9077;BME280;4574;51.072;17.174;2023-01-27T02:55:20;100511.75;;;2.52;100.00
9077;BME280;4574;51.072;17.174;2023-01-27T02:57:49;100510.13;;;2.50;100.00
9077;BME280;4574;51.072;17.174;2023-01-27T03:00:19;100511.81;;;2.51;100.00
9077;BME280;4574;51.072;17.174;2023-01-27T03:02:48;100507.44;;;2.51;100.00
9077;BME280;4574;51.072;17.174;2023-01-27T03:05:16;100504.09;;;2.49;100.00
9077;BME280;4574;51.072;17.174;2023-01-27T03:07:45;100507.44;;;2.51;100.00
9077;BME280;4574;51.072;17.174;2023-01-27T03:10:13;100510.81;;;2.53;100.00
9077;BME280;4574;51.072;17.174;2023-01-27T03:12:43;100515.84;;;2.56;100.00
9077;BME280;4574;51.072;17.174;2023-01-27T03:15:12;100504.72;;;2.53;100.00
9077;BME280;4574;51.072;17.174;2023-01-27T03:18:04;100509.81;;;2.56;100.00
9077;BME280;4574;51.072;17.174;2023-01-27T03:20:44;100501.53;;;2.48;100.00
9077;BME280;4574;51.072;17.174;2023-01-27T03:23:16;100508.78;;;2.58;100.00
9077;BME280;4574;51.072;17.174;2023-01-27T03:25:46;100509.63;;;2.59;100.00
9077;BME280;4574;51.072;17.174;2023-01-27T03:28:16;100511.31;;;2.60;100.00
9077;BME280;4574;51.072;17.174;2023-01-27T03:30:45;100512.31;;;2.57;100.00
9077;BME280;4574;51.072;17.174;2023-01-27T03:33:15;100511.38;;;2.58;100.00
9077;BME280;4574;51.072;17.174;2023-01-27T03:35:43;100502.72;;;2.58;100.00
9077;BME280;4574;51.072;17.174;2023-01-27T03:38:15;100502.78;;;2.56;100.00
9077;BME280;4574;51.072;17.174;2023-01-27T03:41:02;100505.41;;;2.56;100.00
9077;BME280;4574;51.072;17.174;2023-01-27T03:43:48;100506.25;;;2.57;100.00
9077;BME280;4574;51.072;17.174;2023-01-27T03:46:33;100514.09;;;2.57;100.00
9077;BME280;4574;51.072;17.174;2023-01-27T03:49:05;100505.41;;;2.56;100.00
9077;BME280;4574;51.072;17.174;2023-01-27T03:51:33;100503.72;;;2.55;100.00
9077;BME280;4574;51.072;17.174;2023-01-27T03:54:02;100504.66;;;2.54;100.00
9077;BME280;4574;51.072;17.174;2023-01-27T03:56:30;100499.50;;;2.53;100.00
9077;BME280;4574;51.072;17.174;2023-01-27T03:58:59;100506.34;;;2.55;100.00
9077;BME280;4574;51.072;17.174;2023-01-27T04:01:27;100502.78;;;2.56;100.00
9077;BME280;4574;51.072;17.174;2023-01-27T04:03:55;100491.09;;;2.48;100.00
9077;BME280;4574;51.072;17.174;2023-01-27T04:06:43;100502.88;;;2.55;100.00
9077;BME280;4574;51.072;17.174;2023-01-27T04:09:23;100497.81;;;2.52;100.00
9077;BME280;4574;51.072;17.174;2023-01-27T04:11:53;100505.41;;;2.56;100.00
9077;BME280;4574;51.072;17.174;2023-01-27T04:14:26;100504.59;;;2.56;100.00
9077;BME280;4574;51.072;17.174;2023-01-27T04:16:56;100509.81;;;2.56;100.00
9077;BME280;4574;51.072;17.174;2023-01-27T04:19:25;100515.84;;;2.56;100.00
9077;BME280;4574;51.072;17.174;2023-01-27T04:21:56;100500.25;;;2.55;100.00
9077;BME280;4574;51.072;17.174;2023-01-27T04:24:25;100512.13;;;2.60;100.00
9077;BME280;4574;51.072;17.174;2023-01-27T04:26:55;100509.69;;;2.57;100.00
9077;BME280;4574;51.072;17.174;2023-01-27T04:29:26;100506.91;;;2.60;100.00
9077;BME280;4574;51.072;17.174;2023-01-27T04:31:56;100512.13;;;2.60;100.00
9077;BME280;4574;51.072;17.174;2023-01-27T04:34:26;100509.63;;;2.59;100.00
9077;BME280;4574;51.072;17.174;2023-01-27T04:36:57;100504.47;;;2.57;100.00
9077;BME280;4574;51.072;17.174;2023-01-27T04:39:25;100508.69;;;2.60;100.00
9077;BME280;4574;51.072;17.174;2023-01-27T04:41:54;100506.09;;;2.60;100.00
9077;BME280;4574;51.072;17.174;2023-01-27T04:44:23;100509.53;;;2.60;100.00
9077;BME280;4574;51.072;17.174;2023-01-27T04:46:52;100505.22;;;2.59;100.00
9077;BME280;4574;51.072;17.174;2023-01-27T04:49:21;100501.84;;;2.57;100.00
9077;BME280;4574;51.072;17.174;2023-01-27T04:51:49;100508.78;;;2.58;100.00
9077;BME280;4574;51.072;17.174;2023-01-27T04:54:19;100514.84;;;2.59;100.00
9077;BME280;4574;51.072;17.174;2023-01-27T04:56:56;100511.31;;;2.60;100.00
9077;BME280;4574;51.072;17.174;2023-01-27T04:59:26;100508.00;;;2.56;100.00
9077;BME280;4574;51.072;17.174;2023-01-27T05:01:54;100519.97;;;2.60;100.00
9077;BME280;4574;51.072;17.174;2023-01-27T05:04:23;100518.41;;;2.58;100.00
9077;BME280;4574;51.072;17.174;2023-01-27T05:06:53;100521.75;;;2.60;100.00
9077;BME280;4574;51.072;17.174;2023-01-27T05:09:23;100518.41;;;2.58;100.00
9077;BME280;4574;51.072;17.174;2023-01-27T05:11:51;100526.88;;;2.61;100.00
9077;BME280;4574;51.072;17.174;2023-01-27T05:14:20;100526.97;;;2.60;100.00
9077;BME280;4574;51.072;17.174;2023-01-27T05:16:49;100531.47;;;2.58;100.00
9077;BME280;4574;51.072;17.174;2023-01-27T05:19:18;100538.25;;;2.60;100.00
9077;BME280;4574;51.072;17.174;2023-01-27T05:21:47;100534.72;;;2.61;100.00
9077;BME280;4574;51.072;17.174;2023-01-27T05:24:15;100542.56;;;2.61;100.00
9077;BME280;4574;51.072;17.174;2023-01-27T05:26:45;100542.47;;;2.63;100.00
9077;BME280;4574;51.072;17.174;2023-01-27T05:29:14;100548.53;;;2.63;100.00
9077;BME280;4574;51.072;17.174;2023-01-27T05:31:42;100532.47;;;2.55;100.00
9077;BME280;4574;51.072;17.174;2023-01-27T05:34:11;100552.06;;;2.62;100.00
9077;BME280;4574;51.072;17.174;2023-01-27T05:36:39;100550.22;;;2.64;100.00
9077;BME280;4574;51.072;17.174;2023-01-27T05:39:09;100557.31;;;2.62;100.00
9077;BME280;4574;51.072;17.174;2023-01-27T05:41:38;100549.47;;;2.62;100.00
9077;BME280;4574;51.072;17.174;2023-01-27T05:44:10;100551.91;;;2.65;100.00
9077;BME280;4574;51.072;17.174;2023-01-27T05:46:40;100556.19;;;2.66;100.00
9077;BME280;4574;51.072;17.174;2023-01-27T05:49:09;100566.66;;;2.66;100.00
9077;BME280;4574;51.072;17.174;2023-01-27T05:51:38;100560.66;;;2.64;100.00
9077;BME280;4574;51.072;17.174;2023-01-27T05:54:07;100560.84;;;2.61;100.00
9077;BME280;4574;51.072;17.174;2023-01-27T05:56:36;100564.31;;;2.62;100.00
9077;BME280;4574;51.072;17.174;2023-01-27T05:59:05;100561.72;;;2.62;100.00
9077;BME280;4574;51.072;17.174;2023-01-27T06:01:35;100563.38;;;2.63;100.00
9077;BME280;4574;51.072;17.174;2023-01-27T06:04:04;100571.13;;;2.64;100.00
9077;BME280;4574;51.072;17.174;2023-01-27T06:06:33;100575.41;;;2.65;100.00
9077;BME280;4574;51.072;17.174;2023-01-27T06:09:01;100559.00;;;2.63;100.00
9077;BME280;4574;51.072;17.174;2023-01-27T06:11:30;100570.38;;;2.62;100.00
9077;BME280;4574;51.072;17.174;2023-01-27T06:13:58;100573.91;;;2.61;100.00
9077;BME280;4574;51.072;17.174;2023-01-27T06:16:27;100569.63;;;2.60;100.00
9077;BME280;4574;51.072;17.174;2023-01-27T06:18:57;100571.47;;;2.58;100.00
9077;BME280;4574;51.072;17.174;2023-01-27T06:21:26;100578.22;;;2.62;100.00
9077;BME280;4574;51.072;17.174;2023-01-27T06:23:54;100575.78;;;2.59;100.00
9077;BME280;4574;51.072;17.174;2023-01-27T06:26:24;100580.06;;;2.60;100.00
9077;BME280;4574;51.072;17.174;2023-01-27T06:28:54;100580.06;;;2.60;100.00
9077;BME280;4574;51.072;17.174;2023-01-27T06:31:23;100581.19;;;2.56;100.00
9077;BME280;4574;51.072;17.174;2023-01-27T06:33:51;100585.47;;;2.57;100.00
9077;BME280;4574;51.072;17.174;2023-01-27T06:36:22;100583.72;;;2.58;100.00
9077;BME280;4574;51.072;17.174;2023-01-27T06:38:50;100582.84;;;2.57;100.00
9077;BME280;4574;51.072;17.174;2023-01-27T06:41:19;100590.53;;;2.60;100.00
9077;BME280;4574;51.072;17.174;2023-01-27T06:43:47;100594.81;;;2.61;100.00
9077;BME280;4574;51.072;17.174;2023-01-27T06:46:16;100592.31;;;2.60;100.00
9077;BME280;4574;51.072;17.174;2023-01-27T06:48:44;100593.06;;;2.62;100.00
9077;BME280;4574;51.072;17.174;2023-01-27T06:51:13;100588.94;;;2.58;100.00
9077;BME280;4574;51.072;17.174;2023-01-27T06:53:43;100593.88;;;2.62;100.00
9077;BME280;4574;51.072;17.174;2023-01-27T06:56:12;100597.53;;;2.60;100.00
9077;BME280;4574;51.072;17.174;2023-01-27T06:58:43;100595.75;;;2.60;100.00
9077;BME280;4574;51.072;17.174;2023-01-27T07:01:11;100589.59;;;2.61;100.00
9077;BME280;4574;51.072;17.174;2023-01-27T07:03:40;100569.91;;;2.56;100.00
9077;BME280;4574;51.072;17.174;2023-01-27T07:06:10;100590.34;;;2.63;100.00
9077;BME280;4574;51.072;17.174;2023-01-27T07:08:41;100589.41;;;2.64;100.00
9077;BME280;4574;51.072;17.174;2023-01-27T07:11:13;100595.56;;;2.63;100.00
9077;BME280;4574;51.072;17.174;2023-01-27T07:13:41;100594.66;;;2.64;100.00
9077;BME280;4574;51.072;17.174;2023-01-27T07:16:10;100592.97;;;2.63;100.00
9077;BME280;4574;51.072;17.174;2023-01-27T07:18:38;100591.97;;;2.65;100.00
9077;BME280;4574;51.072;17.174;2023-01-27T07:21:07;100590.34;;;2.63;100.00
9077;BME280;4574;51.072;17.174;2023-01-27T07:23:35;100594.75;;;2.63;100.00
9077;BME280;4574;51.072;17.174;2023-01-27T07:26:04;100603.22;;;2.66;100.00
9077;BME280;4574;51.072;17.174;2023-01-27T07:28:51;100600.63;;;2.66;100.00
9077;BME280;4574;51.072;17.174;2023-01-27T07:31:20;100603.22;;;2.66;100.00
9077;BME280;4574;51.072;17.174;2023-01-27T07:33:48;100605.09;;;2.64;100.00
9077;BME280;4574;51.072;17.174;2023-01-27T07:36:17;100607.88;;;2.61;100.00
9077;BME280;4574;51.072;17.174;2023-01-27T07:38:48;100613.22;;;2.60;100.00
9077;BME280;4574;51.072;17.174;2023-01-27T07:41:16;100617.75;;;2.56;100.00
9077;BME280;4574;51.072;17.174;2023-01-27T07:43:45;100623.91;;;2.55;100.00
9077;BME280;4574;51.072;17.174;2023-01-27T07:46:18;100605.22;;;2.47;100.00
9077;BME280;4574;51.072;17.174;2023-01-27T07:48:47;100621.53;;;2.51;100.00
9077;BME280;4574;51.072;17.174;2023-01-27T07:51:15;100620.63;;;2.52;100.00
9077;BME280;4574;51.072;17.174;2023-01-27T07:53:44;100622.56;;;2.48;100.00
9077;BME280;4574;51.072;17.174;2023-01-27T07:56:12;100618.44;;;2.44;100.00
9077;BME280;4574;51.072;17.174;2023-01-27T07:58:41;100625.53;;;2.42;100.00
9077;BME280;4574;51.072;17.174;2023-01-27T08:01:11;100627.72;;;2.34;100.00
9077;BME280;4574;51.072;17.174;2023-01-27T08:03:41;100628.13;;;2.27;100.00
9077;BME280;4574;51.072;17.174;2023-01-27T08:06:10;100626.72;;;2.21;100.00
9077;BME280;4574;51.072;17.174;2023-01-27T08:08:39;100612.31;;;2.14;100.00
9077;BME280;4574;51.072;17.174;2023-01-27T08:11:10;100618.47;;;2.13;100.00
9077;BME280;4574;51.072;17.174;2023-01-27T08:13:39;100622.00;;;2.12;100.00
9077;BME280;4574;51.072;17.174;2023-01-27T08:16:11;100627.56;;;2.06;100.00
9077;BME280;4574;51.072;17.174;2023-01-27T08:18:42;100622.41;;;2.05;100.00
9077;BME280;4574;51.072;17.174;2023-01-27T08:21:11;100615.44;;;2.05;100.00
9077;BME280;4574;51.072;17.174;2023-01-27T08:23:40;100613.16;;;1.99;100.00
9077;BME280;4574;51.072;17.174;2023-01-27T08:26:08;100631.59;;;2.12;100.00
9077;BME280;4574;51.072;17.174;2023-01-27T08:28:38;100611.31;;;2.01;100.00
9077;BME280;4574;51.072;17.174;2023-01-27T08:31:09;100633.22;;;2.14;100.00
9077;BME280;4574;51.072;17.174;2023-01-27T08:33:38;100634.91;;;2.15;100.00
9077;BME280;4574;51.072;17.174;2023-01-27T08:36:11;100622.34;;;2.06;100.00
9077;BME280;4574;51.072;17.174;2023-01-27T08:38:41;100640.78;;;2.19;100.00
9077;BME280;4574;51.072;17.174;2023-01-27T08:41:11;100631.53;;;2.13;100.00
9077;BME280;4574;51.072;17.174;2023-01-27T08:43:40;100642.47;;;2.04;100.00
9077;BME280;4574;51.072;17.174;2023-01-27T08:46:09;100641.38;;;2.08;100.00
9077;BME280;4574;51.072;17.174;2023-01-27T08:48:38;100646.78;;;2.05;100.00
9077;BME280;4574;51.072;17.174;2023-01-27T08:51:12;100642.47;;;2.04;100.00
9077;BME280;4574;51.072;17.174;2023-01-27T08:53:41;100654.78;;;2.02;100.00
9077;BME280;4574;51.072;17.174;2023-01-27T08:56:14;100652.91;;;2.04;100.00
9077;BME280;4574;51.072;17.174;2023-01-27T08:58:42;100649.22;;;2.08;100.00
9077;BME280;4574;51.072;17.174;2023-01-27T09:01:14;100650.13;;;2.07;100.00
9077;BME280;4574;51.072;17.174;2023-01-27T09:03:43;100646.00;;;2.03;100.00
9077;BME280;4574;51.072;17.174;2023-01-27T09:06:14;100639.75;;;2.06;100.00
9077;BME280;4574;51.072;17.174;2023-01-27T09:08:43;100657.97;;;2.07;100.00
9077;BME280;4574;51.072;17.174;2023-01-27T09:11:32;100650.91;;;2.09;100.00
9077;BME280;4574;51.072;17.174;2023-01-27T09:14:01;100644.81;;;2.09;100.00
9077;BME280;4574;51.072;17.174;2023-01-27T09:16:29;100650.31;;;2.04;100.00
9077;BME280;4574;51.072;17.174;2023-01-27T09:18:58;100656.13;;;2.09;100.00
9077;BME280;4574;51.072;17.174;2023-01-27T09:21:29;100658.97;;;2.05;100.00
9077;BME280;4574;51.072;17.174;2023-01-27T09:23:57;100669.19;;;2.09;100.00
9077;BME280;4574;51.072;17.174;2023-01-27T09:26:26;100668.47;;;2.06;100.00
9077;BME280;4574;51.072;17.174;2023-01-27T09:28:54;100675.50;;;2.05;100.00
9077;BME280;4574;51.072;17.174;2023-01-27T09:31:23;100673.81;;;2.04;100.00
9077;BME280;4574;51.072;17.174;2023-01-27T09:33:51;100686.16;;;2.01;100.00
9077;BME280;4574;51.072;17.174;2023-01-27T09:36:22;100673.53;;;1.93;100.00
9077;BME280;4574;51.072;17.174;2023-01-27T09:38:54;100686.16;;;2.01;100.00
9077;BME280;4574;51.072;17.174;2023-01-27T09:41:41;100684.25;;;2.04;100.00
9077;BME280;4574;51.072;17.174;2023-01-27T09:44:44;100687.63;;;2.06;100.00
9077;BME280;4574;51.072;17.174;2023-01-27T09:47:37;100688.28;;;2.10;100.00
9077;BME280;4574;51.072;17.174;2023-01-27T09:50:34;100689.78;;;2.14;100.00
9077;BME280;4574;51.072;17.174;2023-01-27T09:56:14;100682.88;;;2.13;100.00
9077;BME280;4574;51.072;17.174;2023-01-27T09:59:00;100688.81;;;2.16;100.00
9077;BME280;4574;51.072;17.174;2023-01-27T10:01:41;100686.94;;;2.18;100.00
9077;BME280;4574;51.072;17.174;2023-01-27T10:04:31;100684.75;;;2.11;100.00
9077;BME280;4574;51.072;17.174;2023-01-27T10:07:15;100686.25;;;2.15;100.00
9077;BME280;4574;51.072;17.174;2023-01-27T10:10:09;100678.34;;;2.16;100.00
9077;BME280;4574;51.072;17.174;2023-01-27T10:12:58;100679.28;;;2.15;100.00
9077;BME280;4574;51.072;17.174;2023-01-27T10:15:39;100681.13;;;2.13;100.00
9077;BME280;4574;51.072;17.174;2023-01-27T10:18:21;100684.91;;;2.08;100.00
9077;BME280;4574;51.072;17.174;2023-01-27T10:21:01;100681.63;;;2.04;100.00
9077;BME280;4574;51.072;17.174;2023-01-27T10:23:41;100680.94;;;2.01;100.00
9077;BME280;4574;51.072;17.174;2023-01-27T10:26:22;100679.34;;;1.98;100.00
9077;BME280;4574;51.072;17.174;2023-01-27T10:29:03;100686.41;;;1.96;100.00
9077;BME280;4574;51.072;17.174;2023-01-27T10:31:35;100685.56;;;1.96;100.00
9077;BME280;4574;51.072;17.174;2023-01-27T10:34:08;100683.44;;;1.87;100.00
9077;BME280;4574;51.072;17.174;2023-01-27T10:36:45;100678.00;;;1.91;100.00
9077;BME280;4574;51.072;17.174;2023-01-27T10:39:24;100677.13;;;1.91;100.00
9077;BME280;4574;51.072;17.174;2023-01-27T10:42:04;100684.13;;;1.90;100.00
9077;BME280;4574;51.072;17.174;2023-01-27T10:44:51;100687.91;;;1.85;100.00
9077;BME280;4574;51.072;17.174;2023-01-27T10:47:33;100684.38;;;1.86;100.00
9077;BME280;4574;51.072;17.174;2023-01-27T10:50:10;100692.28;;;1.84;100.00
9077;BME280;4574;51.072;17.174;2023-01-27T10:52:44;100693.97;;;1.85;100.00
9077;BME280;4574;51.072;17.174;2023-01-27T10:55:18;100691.59;;;1.81;100.00
9077;BME280;4574;51.072;17.174;2023-01-27T10:57:52;100683.69;;;1.82;100.00
9077;BME280;4574;51.072;17.174;2023-01-27T11:00:29;100686.91;;;1.87;100.00
9077;BME280;4574;51.072;17.174;2023-01-27T11:03:24;100687.66;;;1.89;100.00
9077;BME280;4574;51.072;17.174;2023-01-27T11:05:57;100682.69;;;1.85;100.00
9077;BME280;4574;51.072;17.174;2023-01-27T11:08:31;100689.53;;;1.87;100.00
9077;BME280;4574;51.072;17.174;2023-01-27T11:11:04;100683.53;;;1.85;100.00
9077;BME280;4574;51.072;17.174;2023-01-27T11:13:55;100689.53;;;1.87;100.00
9077;BME280;4574;51.072;17.174;2023-01-27T11:16:32;100693.13;;;1.85;100.00
9077;BME280;4574;51.072;17.174;2023-01-27T11:19:12;100682.63;;;1.86;100.00
9077;BME280;4574;51.072;17.174;2023-01-27T11:21:42;100685.06;;;1.89;100.00
9077;BME280;4574;51.072;17.174;2023-01-27T11:24:21;100680.75;;;1.88;100.00
9077;BME280;4574;51.072;17.174;2023-01-27T11:26:59;100677.72;;;1.80;100.00
9077;BME280;4574;51.072;17.174;2023-01-27T11:29:35;100664.84;;;1.77;100.00
9077;BME280;4574;51.072;17.174;2023-01-27T11:32:15;100676.31;;;1.90;100.00
9077;BME280;4574;51.072;17.174;2023-01-27T11:34:56;100672.84;;;1.90;100.00
9077;BME280;4574;51.072;17.174;2023-01-27T11:37:30;100678.97;;;1.89;100.00
9077;BME280;4574;51.072;17.174;2023-01-27T11:40:00;100672.94;;;1.88;100.00
9077;BME280;4574;51.072;17.174;2023-01-27T11:42:32;100677.22;;;1.89;100.00
9077;BME280;4574;51.072;17.174;2023-01-27T11:45:01;100678.22;;;1.87;100.00
9077;BME280;4574;51.072;17.174;2023-01-27T11:47:34;100676.78;;;1.81;100.00
9077;BME280;4574;51.072;17.174;2023-01-27T11:50:04;100678.16;;;1.88;100.00
9077;BME280;4574;51.072;17.174;2023-01-27T11:52:34;100675.28;;;1.93;100.00
9077;BME280;4574;51.072;17.174;2023-01-27T11:55:05;100680.28;;;1.97;100.00
9077;BME280;4574;51.072;17.174;2023-01-27T11:57:37;100675.13;;;1.96;100.00
9077;BME280;4574;51.072;17.174;2023-01-27T12:00:18;100677.50;;;2.00;100.00
9077;BME280;4574;51.072;17.174;2023-01-27T12:02:58;100673.97;;;2.01;100.00
9077;BME280;4574;51.072;17.174;2023-01-27T12:05:30;100679.03;;;2.04;100.00
9077;BME280;4574;51.072;17.174;2023-01-27T12:08:03;100679.03;;;2.04;100.00
9077;BME280;4574;51.072;17.174;2023-01-27T12:10:33;100676.41;;;2.04;100.00
9077;BME280;4574;51.072;17.174;2023-01-27T12:13:08;100660.00;;;2.02;100.00
9077;BME280;4574;51.072;17.174;2023-01-27T12:15:38;100670.25;;;2.05;100.00
9077;BME280;4574;51.072;17.174;2023-01-27T12:18:16;100670.09;;;2.08;100.00
9077;BME280;4574;51.072;17.174;2023-01-27T12:20:45;100660.41;;;2.10;100.00
9077;BME280;4574;51.072;17.174;2023-01-27T12:23:19;100670.44;;;2.18;100.00
9077;BME280;4574;51.072;17.174;2023-01-27T12:25:52;100668.41;;;2.23;100.00
9077;BME280;4574;51.072;17.174;2023-01-27T12:28:26;100664.03;;;2.23;100.00
9077;BME280;4574;51.072;17.174;2023-01-27T12:31:02;100665.03;;;2.21;100.00
9077;BME280;4574;51.072;17.174;2023-01-27T12:33:36;100657.13;;;2.22;100.00
9077;BME280;4574;51.072;17.174;2023-01-27T12:36:13;100663.94;;;2.25;100.00
9077;BME280;4574;51.072;17.174;2023-01-27T12:38:49;100663.78;;;2.28;100.00
9077;BME280;4574;51.072;17.174;2023-01-27T12:41:22;100660.16;;;2.30;100.00
9077;BME280;4574;51.072;17.174;2023-01-27T12:43:53;100659.13;;;2.33;100.00
9077;BME280;4574;51.072;17.174;2023-01-27T12:46:23;100657.56;;;2.30;100.00
9077;BME280;4574;51.072;17.174;2023-01-27T12:49:00;100664.19;;;2.36;100.00
9077;BME280;4574;51.072;17.174;2023-01-27T12:51:38;100663.19;;;2.38;100.00
9077;BME280;4574;51.072;17.174;2023-01-27T12:54:15;100667.56;;;2.38;100.00
9077;BME280;4574;51.072;17.174;2023-01-27T12:56:44;100667.72;;;2.35;100.00
9077;BME280;4574;51.072;17.174;2023-01-27T12:59:14;100671.03;;;2.38;100.00
9077;BME280;4574;51.072;17.174;2023-01-27T13:01:56;100671.03;;;2.38;100.00
9077;BME280;4574;51.072;17.174;2023-01-27T13:04:28;100670.19;;;2.38;100.00
9077;BME280;4574;51.072;17.174;2023-01-27T13:07:05;100670.94;;;2.40;100.00
9077;BME280;4574;51.072;17.174;2023-01-27T13:09:37;100676.91;;;2.42;100.00
9077;BME280;4574;51.072;17.174;2023-01-27T13:12:14;100678.53;;;2.44;100.00
9077;BME280;4574;51.072;17.174;2023-01-27T13:14:43;100683.75;;;2.44;100.00
9077;BME280;4574;51.072;17.174;2023-01-27T13:17:28;100685.44;;;2.45;100.00
9077;BME280;4574;51.072;17.174;2023-01-27T13:20:02;100694.22;;;2.44;100.00
9077;BME280;4574;51.072;17.174;2023-01-27T13:22:39;100687.38;;;2.42;100.00
9077;BME280;4574;51.072;17.174;2023-01-27T13:25:15;100692.69;;;2.40;100.00
9077;BME280;4574;51.072;17.174;2023-01-27T13:27:46;100684.25;;;2.35;100.00
9077;BME280;4574;51.072;17.174;2023-01-27T13:30:22;100701.13;;;2.45;100.00